Poughkeepsie, NY

10:15 AM EDT on April 27, 2015 (GMT -0400)
Arlington | | Change Station
CLOSE
Current Station
Personal Weather Station
Location: Poughkeepsie, NY
Elevation: 220 ft
Nearby Weather Stations

Elev 220 ft 41.71 °N, 73.90 °W | Updated 4 minutes ago

Overcast
Overcast
58.1 °F
Feels Like 58.1 °F
N
3.1
Wind Variable Wind from North
Gusts 6.9 mph

Today
High -- | Low -- °F
--% Chance of Precip.
Yesterday
High -- | Low -- °F
Precip. -- in
5:58 AM 7:49 PM
Waxing Gibbous, 65% visible
Pressure 29.66 in
Visibility 10.0 miles
Clouds Overcast 9000 ft
Dew Point 34 °F
Humidity 41%
Rainfall 0.00 in
Snow Depth Not available.
UV 0.0 out of 12
Pollen 10.10 out of 12
Air Quality Not available.
Flu Activity Widespread
METAR KPOU 271353Z 36009KT 10SM OVC090 12/01 A2967 RMK AO2 SLP043 T01220011

More Conditions Fewer Conditions

Pressure 29.66 in
Visibility 10.0 miles
Clouds Overcast 9000 ft
Dew Point 34 °F
Humidity 41%
Rainfall 0.00 in
Snow Depth Not available.
UV 0.0 out of 12
Pollen 10.10 out of 12
Air Quality Not available.
Flu Activity Widespread
METAR KPOU 271353Z 36009KT 10SM OVC090 12/01 A2967 RMK AO2 SLP043 T01220011

More Conditions Fewer Conditions

10-Day Weather Forecast

Almanac

Astronomy

Apr. 27, 2015 Rise Set
Actual Time
Civil Twilight
Nautical Twilight
Astronomical Twilight
Moon
Length of Visible Light
Length of Day
Tomorrow will be .
, % of the Moon is Illuminated

Today's Extremes

State Highs State Lows

Community

WunderPhotos

Upload Photos

1,817,314 photos uploaded!

WunderBlogs® & News

Nearby

Air Quality

  Air Quality AQ Index Pollutant
Not available.

Snow Depth

Station Depth Elevation

Earthquake Activity

City Distance Mag. Time & Date
Minimum magnitude displayed is 2.5.

Coastal Water Temperatures

Place Temperature

Stations

Nearby Weather Stations

Station Location Temp. Windchill Dew Point Humidity Wind Precip. Elev Updated Type